Torm Horizon — OYNM2 — position and weather

sailwx.info

Track history (hours):
 
Tides and Currents Weather Stations Pressure Air Temp Water Temp Dewpoint Dewpoint Depression Visibility Wind Speed Wind Dir Waves Ship Positions

Torm Horizon

Last reported at 2017-Mar-31 12:26 UTC. Time now 2017-Apr-27 18:48 UTC.
Position S 19°10' E 057°36'.
Warning: this ship's position is 27 days out of date.

Length 183 m; draft 9 m.

Type: Ship. MMSI: 220566000.

Date/timePositionNaut miles runAvg speedWind from/ knotsBaromVisibWave heightAir tempDewpointWater temp
2017-Mar-31 12:26S 19°10' E 057°36'612.3
2017-Mar-31 11:56S 19°16' E 057°35'613.0
2017-Mar-31 11:30S 19°22' E 057°34'713.4
2017-Mar-31 11:00S 19°28' E 057°33'612.9
2017-Mar-31 10:30S 19°35' E 057°32'612.8
2017-Mar-31 10:00S 19°41' E 057°31'612.6
2017-Mar-31 09:30S 19°47' E 057°30'612.8
2017-Mar-31 09:00S 19°54' E 057°30'713.3
2017-Mar-31 08:30S 20°00' E 057°29'612.9
2017-Mar-31 08:00S 20°07' E 057°28'2 4.0
2017-Mar-31 07:28S 20°09' E 057°29'0 0.0
2017-Mar-31 06:58S 20°09' E 057°29'0 0.0
2017-Mar-31 06:28S 20°09' E 057°29'0 0.0
2017-Mar-30 06:21S 20°09' E 057°29'0 0.1
2017-Mar-30 05:34S 20°08' E 057°29'5 4.7
2017-Mar-30 04:33S 20°06' E 057°25'7 7.1
2017-Mar-30 03:33S 20°06' E 057°17'8 8.3
2017-Mar-30 02:33S 20°13' E 057°12'1312.4
2017-Mar-30 01:28S 20°23' E 057°03'  
2017-Mar-24 18:21S 29°51' E 031°55'7 8.8
2017-Mar-24 17:33S 29°51' E 031°47'10 9.6
2017-Mar-24 16:34S 29°49' E 031°36'1111.1
2017-Mar-24 15:33S 29°49' E 031°24'1110.9
2017-Mar-24 14:33S 29°49' E 031°11'9 9.0
2017-Mar-24 13:34S 29°53' E 031°02'0 0.0
2017-Mar-24 12:31S 29°53' E 031°02'0 0.0
2017-Mar-24 11:31S 29°53' E 031°02'0 0.0
2017-Mar-24 10:31S 29°53' E 031°02'0 0.0
2017-Mar-24 08:31S 29°53' E 031°02'0 0.0
2017-Mar-24 07:31S 29°53' E 031°02'0 0.0
2017-Mar-24 06:31S 29°53' E 031°02'0 0.0
2017-Mar-24 05:31S 29°53' E 031°02'0 0.0
2017-Mar-24 04:31S 29°53' E 031°02'0 0.0
2017-Mar-24 03:31S 29°53' E 031°02'0 0.0
2017-Mar-24 02:31S 29°53' E 031°02'0 0.0
2017-Mar-24 01:31S 29°53' E 031°02'0 0.0
2017-Mar-24 00:30S 29°53' E 031°02'0 0.0
2017-Mar-23 23:33S 29°53' E 031°02'0 0.0
2017-Mar-23 22:30S 29°53' E 031°02'0 0.0
2017-Mar-23 21:33S 29°53' E 031°02'0 0.0
2017-Mar-23 20:30S 29°53' E 031°02'0 0.0
2017-Mar-23 19:30S 29°53' E 031°02'0 0.0
2017-Mar-23 18:33S 29°53' E 031°02'0 0.0
2017-Mar-23 17:33S 29°53' E 031°02'0 0.0
2017-Mar-23 16:30S 29°53' E 031°02'0 0.0
2017-Mar-23 15:30S 29°53' E 031°02'0 0.0
2017-Mar-23 14:30S 29°53' E 031°02'0 0.0
2017-Mar-23 13:30S 29°53' E 031°02'0 0.0
2017-Mar-23 12:33S 29°53' E 031°02'0 0.0
2017-Mar-23 11:33S 29°53' E 031°02'0 0.0
2017-Mar-23 10:30S 29°53' E 031°02'0 0.0
2017-Mar-23 09:30S 29°53' E 031°02'0 0.0
2017-Mar-23 08:33S 29°53' E 031°02'0 0.0
2017-Mar-23 07:30S 29°53' E 031°02'0 0.0
2017-Mar-23 06:33S 29°53' E 031°02'0 0.0
2017-Mar-23 05:30S 29°53' E 031°02'0 0.0
2017-Mar-23 04:30S 29°53' E 031°02'0 0.0
2017-Mar-23 03:33S 29°53' E 031°02'0 0.0
2017-Mar-23 02:33S 29°53' E 031°02'0 0.0
2017-Mar-23 01:24S 29°53' E 031°02'0 0.0
2017-Mar-23 00:30S 29°53' E 031°02'0 0.0
2017-Mar-22 23:30S 29°53' E 031°02'0 0.0
2017-Mar-22 22:33S 29°53' E 031°02'0 0.0
2017-Mar-22 21:30S 29°53' E 031°02'0 0.0
2017-Mar-22 20:33S 29°53' E 031°02'6 5.9
2017-Mar-22 19:33S 29°48' E 031°06'2 1.6
2017-Mar-22 18:33S 29°47' E 031°07'1 1.1
2017-Mar-22 17:29S 29°46' E 031°07'0 0.0
2017-Mar-22 16:29S 29°46' E 031°07'0 0.0
2017-Mar-22 15:29S 29°46' E 031°07'0 0.0
2017-Mar-22 14:32S 29°46' E 031°07'0 0.0
2017-Mar-22 13:29S 29°46' E 031°07'0 0.0
2017-Mar-22 12:29S 29°46' E 031°07'0 0.0
2017-Mar-22 11:29S 29°46' E 031°07'0 0.0
2017-Mar-22 10:29S 29°46' E 031°07'0 0.0
2017-Mar-22 09:29S 29°46' E 031°07'0 0.0
2017-Mar-22 08:29S 29°46' E 031°07'0 0.0
2017-Mar-22 07:29S 29°46' E 031°07'0 0.0
2017-Mar-22 06:32S 29°46' E 031°07'0 0.0
2017-Mar-22 05:32S 29°46' E 031°07'0 0.0
2017-Mar-22 04:32S 29°46' E 031°07'0 0.1
2017-Mar-22 03:32S 29°46' E 031°07'4 3.8
2017-Mar-22 02:33S 29°49' E 031°05'5 4.9
2017-Mar-22 01:29S 29°53' E 031°02'0 0.0
2017-Mar-22 00:29S 29°53' E 031°02'0 0.0
2017-Mar-21 23:29S 29°53' E 031°02'0 0.0
2017-Mar-21 22:32S 29°53' E 031°02'0 0.0
2017-Mar-21 21:29S 29°53' E 031°02'0 0.0
2017-Mar-21 20:32S 29°53' E 031°02'0 0.0
2017-Mar-21 19:32S 29°53' E 031°02'0 0.0
2017-Mar-21 18:32S 29°53' E 031°02'0 0.0
2017-Mar-21 17:29S 29°53' E 031°02'0 0.0
2017-Mar-21 16:29S 29°53' E 031°02'0 0.0
2017-Mar-21 15:29S 29°53' E 031°02'0 0.0
2017-Mar-21 14:29S 29°53' E 031°02'0 0.0
2017-Mar-21 13:29S 29°53' E 031°02'0 0.0
2017-Mar-21 12:32S 29°53' E 031°02'  
Track history (hours):
 
Tides and Currents Weather Stations Pressure Air Temp Water Temp Dewpoint Dewpoint Depression Visibility Wind Speed Wind Dir Waves Ship Positions

Torm Horizon

Last reported at 2017-Mar-31 12:26 UTC. Time now 2017-Apr-27 18:48 UTC.
Position S 19°10' E 057°36'.
Warning: this ship's position is 27 days out of date.

Length 183 m; draft 9 m.

Type: Ship. MMSI: 220566000.

Date/timePositionNaut miles runAvg speedWind from/ knotsBaromVisibWave heightAir tempDewpointWater temp
2017-Mar-31 12:26S 19°10' E 057°36'612.3
2017-Mar-31 11:56S 19°16' E 057°35'613.0
2017-Mar-31 11:30S 19°22' E 057°34'713.4
2017-Mar-31 11:00S 19°28' E 057°33'612.9
2017-Mar-31 10:30S 19°35' E 057°32'612.8
2017-Mar-31 10:00S 19°41' E 057°31'612.6
2017-Mar-31 09:30S 19°47' E 057°30'612.8
2017-Mar-31 09:00S 19°54' E 057°30'713.3
2017-Mar-31 08:30S 20°00' E 057°29'612.9
2017-Mar-31 08:00S 20°07' E 057°28'2 4.0
2017-Mar-31 07:28S 20°09' E 057°29'0 0.0
2017-Mar-31 06:58S 20°09' E 057°29'0 0.0
2017-Mar-31 06:28S 20°09' E 057°29'0 0.0
2017-Mar-30 06:21S 20°09' E 057°29'0 0.1
2017-Mar-30 05:34S 20°08' E 057°29'5 4.7
2017-Mar-30 04:33S 20°06' E 057°25'7 7.1
2017-Mar-30 03:33S 20°06' E 057°17'8 8.3
2017-Mar-30 02:33S 20°13' E 057°12'1312.4
2017-Mar-30 01:28S 20°23' E 057°03'  
2017-Mar-24 18:21S 29°51' E 031°55'7 8.8
2017-Mar-24 17:33S 29°51' E 031°47'10 9.6
2017-Mar-24 16:34S 29°49' E 031°36'1111.1
2017-Mar-24 15:33S 29°49' E 031°24'1110.9
2017-Mar-24 14:33S 29°49' E 031°11'9 9.0
2017-Mar-24 13:34S 29°53' E 031°02'0 0.0
2017-Mar-24 12:31S 29°53' E 031°02'0 0.0
2017-Mar-24 11:31S 29°53' E 031°02'0 0.0
2017-Mar-24 10:31S 29°53' E 031°02'0 0.0
2017-Mar-24 08:31S 29°53' E 031°02'0 0.0
2017-Mar-24 07:31S 29°53' E 031°02'0 0.0
2017-Mar-24 06:31S 29°53' E 031°02'0 0.0
2017-Mar-24 05:31S 29°53' E 031°02'0 0.0
2017-Mar-24 04:31S 29°53' E 031°02'0 0.0
2017-Mar-24 03:31S 29°53' E 031°02'0 0.0
2017-Mar-24 02:31S 29°53' E 031°02'0 0.0
2017-Mar-24 01:31S 29°53' E 031°02'0 0.0
2017-Mar-24 00:30S 29°53' E 031°02'0 0.0
2017-Mar-23 23:33S 29°53' E 031°02'0 0.0
2017-Mar-23 22:30S 29°53' E 031°02'0 0.0
2017-Mar-23 21:33S 29°53' E 031°02'0 0.0
2017-Mar-23 20:30S 29°53' E 031°02'0 0.0
2017-Mar-23 19:30S 29°53' E 031°02'0 0.0
2017-Mar-23 18:33S 29°53' E 031°02'0 0.0
2017-Mar-23 17:33S 29°53' E 031°02'0 0.0
2017-Mar-23 16:30S 29°53' E 031°02'0 0.0
2017-Mar-23 15:30S 29°53' E 031°02'0 0.0
2017-Mar-23 14:30S 29°53' E 031°02'0 0.0
2017-Mar-23 13:30S 29°53' E 031°02'0 0.0
2017-Mar-23 12:33S 29°53' E 031°02'0 0.0
2017-Mar-23 11:33S 29°53' E 031°02'0 0.0
2017-Mar-23 10:30S 29°53' E 031°02'0 0.0
2017-Mar-23 09:30S 29°53' E 031°02'0 0.0
2017-Mar-23 08:33S 29°53' E 031°02'0 0.0
2017-Mar-23 07:30S 29°53' E 031°02'0 0.0
2017-Mar-23 06:33S 29°53' E 031°02'0 0.0
2017-Mar-23 05:30S 29°53' E 031°02'0 0.0
2017-Mar-23 04:30S 29°53' E 031°02'0 0.0
2017-Mar-23 03:33S 29°53' E 031°02'0 0.0
2017-Mar-23 02:33S 29°53' E 031°02'0 0.0
2017-Mar-23 01:24S 29°53' E 031°02'0 0.0
2017-Mar-23 00:30S 29°53' E 031°02'0 0.0
2017-Mar-22 23:30S 29°53' E 031°02'0 0.0
2017-Mar-22 22:33S 29°53' E 031°02'0 0.0
2017-Mar-22 21:30S 29°53' E 031°02'0 0.0
2017-Mar-22 20:33S 29°53' E 031°02'6 5.9
2017-Mar-22 19:33S 29°48' E 031°06'2 1.6
2017-Mar-22 18:33S 29°47' E 031°07'1 1.1
2017-Mar-22 17:29S 29°46' E 031°07'0 0.0
2017-Mar-22 16:29S 29°46' E 031°07'0 0.0
2017-Mar-22 15:29S 29°46' E 031°07'0 0.0
2017-Mar-22 14:32S 29°46' E 031°07'0 0.0
2017-Mar-22 13:29S 29°46' E 031°07'0 0.0
2017-Mar-22 12:29S 29°46' E 031°07'0 0.0
2017-Mar-22 11:29S 29°46' E 031°07'0 0.0
2017-Mar-22 10:29S 29°46' E 031°07'0 0.0
2017-Mar-22 09:29S 29°46' E 031°07'0 0.0
2017-Mar-22 08:29S 29°46' E 031°07'0 0.0
2017-Mar-22 07:29S 29°46' E 031°07'0 0.0
2017-Mar-22 06:32S 29°46' E 031°07'0 0.0
2017-Mar-22 05:32S 29°46' E 031°07'0 0.0
2017-Mar-22 04:32S 29°46' E 031°07'0 0.1
2017-Mar-22 03:32S 29°46' E 031°07'4 3.8
2017-Mar-22 02:33S 29°49' E 031°05'5 4.9
2017-Mar-22 01:29S 29°53' E 031°02'0 0.0
2017-Mar-22 00:29S 29°53' E 031°02'0 0.0
2017-Mar-21 23:29S 29°53' E 031°02'0 0.0
2017-Mar-21 22:32S 29°53' E 031°02'0 0.0
2017-Mar-21 21:29S 29°53' E 031°02'0 0.0
2017-Mar-21 20:32S 29°53' E 031°02'0 0.0
2017-Mar-21 19:32S 29°53' E 031°02'0 0.0
2017-Mar-21 18:32S 29°53' E 031°02'0 0.0
2017-Mar-21 17:29S 29°53' E 031°02'0 0.0
2017-Mar-21 16:29S 29°53' E 031°02'0 0.0
2017-Mar-21 15:29S 29°53' E 031°02'0 0.0
2017-Mar-21 14:29S 29°53' E 031°02'0 0.0
2017-Mar-21 13:29S 29°53' E 031°02'0 0.0
2017-Mar-21 12:32S 29°53' E 031°02'  

Dump ship's entire track history